createdAt,value
2022-12-18T00:00:08.458Z,-3270.90
2022-12-18T00:02:36.795Z,-3270.90
2022-12-18T00:05:05.296Z,-3270.80
2022-12-18T00:07:33.458Z,-3270.70
2022-12-18T00:10:01.534Z,-3270.50
2022-12-18T00:12:30.208Z,-3270.50
2022-12-18T00:14:59.939Z,-3270.50
2022-12-18T00:17:28.043Z,-3270.40
2022-12-18T00:19:56.238Z,-3270.40
2022-12-18T00:22:24.305Z,-3270.30
2022-12-18T00:24:52.457Z,-3270.30
2022-12-18T00:27:20.615Z,-3270.30
2022-12-18T00:29:49.979Z,-3270.30
2022-12-18T00:32:19.553Z,-3270.40
2022-12-18T00:34:47.672Z,-3270.40
2022-12-18T00:37:20.058Z,-3270.40
2022-12-18T00:39:50.632Z,-3270.30
2022-12-18T00:42:35.987Z,-3270.30
2022-12-18T00:45:10.687Z,-3270.20
2022-12-18T00:47:42.131Z,-3270.00
2022-12-18T00:50:11.361Z,-3269.90
2022-12-18T00:52:42.672Z,-3270.10
2022-12-18T00:55:11.276Z,-3270.10
2022-12-18T00:57:39.573Z,-3270.00
2022-12-18T01:00:11.768Z,-3270.00
2022-12-18T01:02:41.504Z,-3270.00
2022-12-18T01:05:11.071Z,-3270.00
2022-12-18T01:07:39.414Z,-3270.20
2022-12-18T01:10:09.255Z,-3270.20
2022-12-18T01:12:37.447Z,-3270.20
2022-12-18T01:15:06.983Z,-3270.30
2022-12-18T01:17:35.302Z,-3270.30
2022-12-18T01:20:05.514Z,-3270.30
2022-12-18T01:22:36.811Z,-3270.30
2022-12-18T01:25:06.402Z,-3270.30
2022-12-18T01:27:36.028Z,-3270.30
2022-12-18T01:30:04.463Z,-3270.30
2022-12-18T01:32:32.760Z,-3270.40
2022-12-18T01:35:00.906Z,-3270.40
2022-12-18T01:37:30.425Z,-3270.30
2022-12-18T01:39:58.506Z,-3270.30
2022-12-18T01:42:26.831Z,-3270.30
2022-12-18T01:45:07.176Z,-3270.40
2022-12-18T01:47:39.200Z,-3270.40
2022-12-18T01:50:11.094Z,-3270.30
2022-12-18T01:52:44.777Z,-3270.30
2022-12-18T01:55:14.511Z,-3270.30
2022-12-18T01:57:43.509Z,-3270.30
2022-12-18T02:00:14.544Z,-3270.40
2022-12-18T02:02:43.942Z,-3270.40
2022-12-18T02:05:13.780Z,-3270.30
2022-12-18T02:07:54.891Z,-3270.30
2022-12-18T02:10:29.084Z,-3270.30
2022-12-18T02:13:06.639Z,-3270.30
2022-12-18T02:15:41.102Z,-3270.30
2022-12-18T02:18:14.280Z,-3270.30
2022-12-18T02:20:47.381Z,-3270.40
2022-12-18T02:23:32.642Z,-3270.40
2022-12-18T02:26:16.932Z,-3270.40
2022-12-18T02:28:48.056Z,-3270.50
2022-12-18T02:31:24.041Z,-3270.60
2022-12-18T02:33:53.326Z,-3270.70
2022-12-18T02:36:24.071Z,-3270.70
2022-12-18T02:38:54.518Z,-3270.70
2022-12-18T02:41:27.527Z,-3270.60
2022-12-18T02:44:00.959Z,-3270.70
2022-12-18T02:46:37.259Z,-3270.70
2022-12-18T02:49:18.733Z,-3270.60
2022-12-18T02:51:53.207Z,-3270.50
2022-12-18T02:54:36.618Z,-3270.50
2022-12-18T02:57:14.627Z,-3270.40
2022-12-18T02:59:49.927Z,-3270.40
2022-12-18T03:02:24.989Z,-3270.40
2022-12-18T03:05:00.073Z,-3270.40
2022-12-18T03:07:39.065Z,-3270.40
2022-12-18T03:10:10.880Z,-3270.50
2022-12-18T03:12:45.134Z,-3270.50
2022-12-18T03:15:17.966Z,-3270.50
2022-12-18T03:17:50.643Z,-3270.50
2022-12-18T03:20:22.567Z,-3270.50
2022-12-18T03:22:55.311Z,-3270.50
2022-12-18T03:25:24.682Z,-3270.40
2022-12-18T03:27:58.834Z,-3270.40
2022-12-18T03:30:30.277Z,-3270.30
2022-12-18T03:33:06.131Z,-3270.20
2022-12-18T03:35:38.516Z,-3270.20
2022-12-18T03:38:06.940Z,-3270.10
2022-12-18T03:40:42.755Z,-3270.00
2022-12-18T03:43:18.853Z,-3270.00
2022-12-18T03:45:54.944Z,-3270.00
2022-12-18T03:48:31.591Z,-3270.00
2022-12-18T03:51:04.679Z,-3270.00
2022-12-18T03:53:41.825Z,-3270.00
2022-12-18T03:56:11.513Z,-3270.00
2022-12-18T03:58:43.542Z,-3270.00
2022-12-18T04:01:17.287Z,-3270.10
2022-12-18T04:03:48.421Z,-3270.10
2022-12-18T04:06:18.659Z,-3270.00
2022-12-18T04:08:47.903Z,-3269.90
2022-12-18T04:11:16.060Z,-3269.90
2022-12-18T04:13:45.768Z,-3269.90
2022-12-18T04:16:13.890Z,-3269.90
2022-12-18T04:18:42.070Z,-3269.90
2022-12-18T04:21:10.400Z,-3270.00
2022-12-18T04:23:38.761Z,-3269.90
2022-12-18T04:26:07.278Z,-3269.80
2022-12-18T04:28:35.398Z,-3269.80
2022-12-18T04:31:05.030Z,-3269.90
2022-12-18T04:33:33.235Z,-3269.90
2022-12-18T04:36:01.406Z,-3269.90
2022-12-18T04:38:29.535Z,-3269.80
2022-12-18T04:40:57.720Z,-3269.80
2022-12-18T04:43:25.983Z,-3269.80
2022-12-18T04:45:54.152Z,-3269.80
2022-12-18T04:48:24.249Z,-3269.80
2022-12-18T04:50:52.750Z,-3269.80
2022-12-18T04:53:20.932Z,-3269.80
2022-12-18T04:55:49.093Z,-3269.70
2022-12-18T04:58:17.263Z,-3269.70
2022-12-18T05:00:45.379Z,-3269.70
2022-12-18T05:03:13.612Z,-3269.70
2022-12-18T05:05:43.169Z,-3269.70
2022-12-18T05:08:11.299Z,-3269.70
2022-12-18T05:10:39.427Z,-3269.50
2022-12-18T05:13:07.600Z,-3269.60
2022-12-18T05:15:36.022Z,-3269.50
2022-12-18T05:18:05.271Z,-3269.50
2022-12-18T05:20:33.706Z,-3269.50
2022-12-18T05:23:03.202Z,-3269.50
2022-12-18T05:25:31.302Z,-3269.40
2022-12-18T05:27:59.535Z,-3269.50
2022-12-18T05:30:29.578Z,-3269.60
2022-12-18T05:32:57.680Z,-3269.70
2022-12-18T05:35:25.888Z,-3269.70
2022-12-18T05:37:53.981Z,-3269.60
2022-12-18T05:40:23.544Z,-3269.70
2022-12-18T05:42:51.701Z,-3269.70
2022-12-18T05:45:19.996Z,-3269.70
2022-12-18T05:47:48.116Z,-3269.70
2022-12-18T05:50:16.565Z,-3269.80
2022-12-18T05:52:44.689Z,-3269.80
2022-12-18T05:55:12.833Z,-3269.80
2022-12-18T05:57:42.300Z,-3269.80
2022-12-18T06:00:12.064Z,-3269.80
2022-12-18T06:02:40.301Z,-3269.80
2022-12-18T06:05:10.090Z,-3269.70
2022-12-18T06:07:38.235Z,-3269.80
2022-12-18T06:10:07.436Z,-3269.80
2022-12-18T06:12:35.631Z,-3269.70
2022-12-18T06:15:05.756Z,-3269.70
2022-12-18T06:17:34.901Z,-3269.80
2022-12-18T06:20:03.469Z,-3269.80
2022-12-18T06:22:33.146Z,-3269.80
2022-12-18T06:25:01.432Z,-3269.70
2022-12-18T06:27:29.982Z,-3269.70
2022-12-18T06:29:58.101Z,-3269.70
2022-12-18T06:32:27.586Z,-3269.80
2022-12-18T06:34:56.423Z,-3269.80
2022-12-18T06:37:27.028Z,-3269.80
2022-12-18T06:39:55.188Z,-3269.80
2022-12-18T06:42:23.339Z,-3269.80
2022-12-18T06:44:51.514Z,-3269.80
2022-12-18T06:47:19.692Z,-3269.80
2022-12-18T06:49:49.214Z,-3269.70
2022-12-18T06:52:20.280Z,-3269.60
2022-12-18T06:54:48.418Z,-3269.60
2022-12-18T06:57:16.565Z,-3269.70
2022-12-18T06:59:44.651Z,-3269.70
2022-12-18T07:02:14.112Z,-3269.70
2022-12-18T07:04:42.418Z,-3269.70
2022-12-18T07:07:11.940Z,-3269.80
2022-12-18T07:09:40.115Z,-3269.90
2022-12-18T07:12:09.025Z,-3269.90
2022-12-18T07:14:37.148Z,-3269.90
2022-12-18T07:17:05.376Z,-3270.00
2022-12-18T07:19:34.858Z,-3270.00
2022-12-18T07:22:03.260Z,-3270.00
2022-12-18T07:24:34.955Z,-3270.00
2022-12-18T07:27:04.220Z,-3270.00
2022-12-18T07:29:32.854Z,-3270.00
2022-12-18T07:32:01.055Z,-3270.00
2022-12-18T07:34:29.400Z,-3270.00
2022-12-18T07:36:57.570Z,-3270.00
2022-12-18T07:39:25.907Z,-3270.10
2022-12-18T07:42:09.253Z,-3270.20
2022-12-18T07:44:37.660Z,-3270.20
2022-12-18T07:47:10.505Z,-3270.10
2022-12-18T07:49:41.470Z,-3270.20
2022-12-18T07:52:10.503Z,-3270.20
2022-12-18T07:54:38.677Z,-3270.30
2022-12-18T07:57:16.431Z,-3270.30
2022-12-18T07:59:56.409Z,-3270.20
2022-12-18T08:02:24.669Z,-3270.20
2022-12-18T08:04:52.931Z,-3270.20
2022-12-18T08:07:21.003Z,-3270.30
2022-12-18T08:09:49.135Z,-3270.30
2022-12-18T08:12:18.671Z,-3270.30
2022-12-18T08:14:46.901Z,-3270.40
2022-12-18T08:17:15.023Z,-3270.50
2022-12-18T08:19:43.217Z,-3270.40
2022-12-18T08:22:11.372Z,-3270.40
2022-12-18T08:24:39.557Z,-3270.50
2022-12-18T08:29:57.288Z,-3270.80
2022-12-18T08:32:25.886Z,-3270.90
2022-12-18T08:34:54.032Z,-3271.10
2022-12-18T08:37:22.319Z,-3271.20
2022-12-18T08:39:50.434Z,-3271.30
2022-12-18T08:42:35.699Z,-3271.40
2022-12-18T08:45:06.088Z,-3271.50
2022-12-18T08:47:34.310Z,-3271.60
2022-12-18T08:50:02.514Z,-3271.70
2022-12-18T08:52:30.668Z,-3271.80
2022-12-18T08:54:59.016Z,-3272.00
2022-12-18T08:57:27.222Z,-3272.20
2022-12-18T08:59:55.504Z,-3272.40
2022-12-18T09:02:25.191Z,-3272.30
2022-12-18T09:04:57.401Z,-3272.40
2022-12-18T09:07:25.982Z,-3272.60
2022-12-18T09:09:54.191Z,-3272.70
2022-12-18T09:12:22.365Z,-3272.90
2022-12-18T09:14:52.965Z,-3273.00
2022-12-18T09:17:21.247Z,-3273.10
2022-12-18T09:19:51.117Z,-3273.20
2022-12-18T09:22:19.312Z,-3273.30
2022-12-18T09:24:47.464Z,-3273.50
2022-12-18T09:27:15.666Z,-3273.70
2022-12-18T09:29:43.742Z,-3273.70
2022-12-18T09:32:11.988Z,-3273.80
2022-12-18T09:34:40.825Z,-3273.90
2022-12-18T09:37:10.359Z,-3274.00
2022-12-18T09:39:38.545Z,-3274.00
2022-12-18T09:42:07.648Z,-3274.10
2022-12-18T09:44:45.129Z,-3274.20
2022-12-18T09:47:20.072Z,-3274.30
2022-12-18T09:49:50.762Z,-3274.30
2022-12-18T09:52:25.902Z,-3274.40
2022-12-18T09:54:59.184Z,-3274.40
2022-12-18T09:57:27.740Z,-3274.50
2022-12-18T10:00:00.760Z,-3274.70
2022-12-18T10:02:32.898Z,-3274.70
2022-12-18T10:05:10.005Z,-3274.70
2022-12-18T10:07:49.491Z,-3274.80
2022-12-18T10:10:31.600Z,-3275.00
2022-12-18T10:13:07.384Z,-3275.10
2022-12-18T10:15:41.797Z,-3275.20
2022-12-18T10:18:23.350Z,-3275.30
2022-12-18T10:20:54.198Z,-3275.40
2022-12-18T10:23:30.467Z,-3275.40
2022-12-18T10:26:04.660Z,-3275.50
2022-12-18T10:28:33.952Z,-3275.70
2022-12-18T10:31:02.237Z,-3275.70
2022-12-18T10:33:32.940Z,-3275.80
2022-12-18T10:36:01.680Z,-3275.90
2022-12-18T10:38:33.577Z,-3275.90
2022-12-18T10:41:03.947Z,-3275.90
2022-12-18T10:43:34.235Z,-3275.90
2022-12-18T10:46:15.551Z,-3276.00
2022-12-18T10:48:54.111Z,-3276.10
2022-12-18T10:51:25.237Z,-3276.20
2022-12-18T10:54:01.392Z,-3276.20
2022-12-18T10:56:33.785Z,-3276.30
2022-12-18T10:59:05.109Z,-3276.40
2022-12-18T11:01:49.820Z,-3276.50
2022-12-18T11:04:21.720Z,-3276.70
2022-12-18T11:06:59.142Z,-3276.70
2022-12-18T11:09:30.302Z,0.00
2022-12-18T11:12:00.550Z,0.20
2022-12-18T11:14:32.879Z,0.30
2022-12-18T11:17:24.872Z,0.30
2022-12-18T11:19:56.256Z,0.40
2022-12-18T11:22:27.573Z,0.40
2022-12-18T11:27:54.659Z,0.50
2022-12-18T11:30:26.276Z,0.70
2022-12-18T11:32:58.818Z,0.80
2022-12-18T11:35:37.703Z,0.90
2022-12-18T11:38:15.007Z,1.10
2022-12-18T11:40:47.567Z,1.20
2022-12-18T11:43:19.166Z,1.30
2022-12-18T11:45:55.205Z,1.30
2022-12-18T11:48:27.821Z,1.40
2022-12-18T11:50:58.241Z,1.40
2022-12-18T11:53:28.120Z,1.40
2022-12-18T11:56:07.084Z,1.40
2022-12-18T11:58:48.488Z,1.50
2022-12-18T12:01:32.381Z,1.70
2022-12-18T12:04:20.192Z,1.80
2022-12-18T12:07:02.760Z,1.80
2022-12-18T12:09:40.015Z,1.60
2022-12-18T12:12:27.043Z,1.10
2022-12-18T12:15:04.551Z,1.00
2022-12-18T12:17:40.116Z,1.00
2022-12-18T12:20:15.393Z,0.80
2022-12-18T12:22:53.316Z,0.70
2022-12-18T12:25:35.126Z,0.40
2022-12-18T12:28:17.243Z,0.50
2022-12-18T12:30:58.547Z,0.50
2022-12-18T12:33:38.165Z,0.60
2022-12-18T12:36:16.733Z,0.70
2022-12-18T12:38:51.909Z,0.80
2022-12-18T12:41:41.905Z,0.80
2022-12-18T12:44:17.393Z,0.60
2022-12-18T12:46:46.155Z,0.30
2022-12-18T12:49:19.669Z,0.30
2022-12-18T12:51:53.760Z,0.30
2022-12-18T12:54:26.912Z,0.40
2022-12-18T12:57:01.064Z,0.60
2022-12-18T12:59:39.623Z,1.00
2022-12-18T13:02:18.529Z,1.20
2022-12-18T13:04:52.074Z,1.30
2022-12-18T13:07:25.627Z,1.10
2022-12-18T13:10:17.255Z,1.00
2022-12-18T13:12:58.536Z,1.20
2022-12-18T13:15:36.505Z,1.40
2022-12-18T13:18:12.771Z,1.40
2022-12-18T13:20:44.703Z,1.30
2022-12-18T13:23:37.792Z,1.30
2022-12-18T13:26:32.387Z,1.10
2022-12-18T13:29:02.943Z,1.30
2022-12-18T13:32:12.889Z,1.30
2022-12-18T13:34:44.225Z,1.60
2022-12-18T13:37:45.515Z,1.60
2022-12-18T13:40:58.618Z,1.80
2022-12-18T13:43:38.434Z,1.90
2022-12-18T13:46:20.372Z,1.90
2022-12-18T13:49:00.864Z,1.80
2022-12-18T13:51:33.996Z,1.40
2022-12-18T13:54:04.701Z,0.90
2022-12-18T13:56:35.221Z,0.80
2022-12-18T13:59:14.557Z,0.80
2022-12-18T14:01:47.892Z,0.90
2022-12-18T14:04:23.466Z,1.00
2022-12-18T14:06:57.097Z,0.90
2022-12-18T14:09:29.251Z,1.00
2022-12-18T14:12:13.286Z,0.90
2022-12-18T14:14:45.515Z,0.90
2022-12-18T14:17:15.547Z,0.80
2022-12-18T14:19:46.786Z,0.80
2022-12-18T14:22:20.179Z,0.80
2022-12-18T14:24:48.824Z,0.70
2022-12-18T14:27:25.598Z,0.60
2022-12-18T14:29:53.859Z,0.30
2022-12-18T14:32:23.544Z,0.20
2022-12-18T14:34:53.140Z,0.30
2022-12-18T14:37:26.449Z,0.30
2022-12-18T14:39:56.482Z,0.20
2022-12-18T14:42:29.052Z,0.10
2022-12-18T14:45:41.516Z,0.10
2022-12-18T14:48:19.077Z,0.00
2022-12-18T14:51:01.224Z,0.00
2022-12-18T14:53:42.601Z,0.00
2022-12-18T14:56:23.215Z,-3276.60
2022-12-18T14:58:53.903Z,-3276.70
2022-12-18T15:01:25.323Z,-3276.70
2022-12-18T15:03:54.842Z,-3276.70
2022-12-18T15:06:32.636Z,-3276.70
2022-12-18T15:09:04.416Z,-3276.50
2022-12-18T15:11:38.088Z,-3276.40
2022-12-18T15:14:40.145Z,-3276.30
2022-12-18T15:17:20.023Z,-3276.30
2022-12-18T15:19:50.075Z,-3276.30
2022-12-18T15:22:24.582Z,-3276.30
2022-12-18T15:24:54.822Z,-3276.30
2022-12-18T15:27:28.307Z,-3276.20
2022-12-18T15:30:19.297Z,-3276.20
2022-12-18T15:32:47.603Z,-3276.20
2022-12-18T15:35:21.592Z,-3276.20
2022-12-18T15:37:50.596Z,-3276.30
2022-12-18T15:40:22.793Z,-3276.20
2022-12-18T15:43:11.339Z,-3276.20
2022-12-18T15:45:39.519Z,-3276.20
2022-12-18T15:48:19.524Z,-3276.30
2022-12-18T15:50:47.789Z,-3276.30
2022-12-18T15:53:16.060Z,-3276.30
2022-12-18T15:56:02.847Z,-3276.40
2022-12-18T15:58:31.223Z,-3276.50
2022-12-18T16:01:01.741Z,-3276.50
2022-12-18T16:03:30.000Z,-3276.60
2022-12-18T16:05:59.379Z,-3276.60
2022-12-18T16:08:28.261Z,-3276.50
2022-12-18T16:10:58.161Z,-3276.50
2022-12-18T16:13:26.564Z,-3276.30
2022-12-18T16:15:55.234Z,-3276.40
2022-12-18T16:18:23.412Z,-3276.50
2022-12-18T16:20:51.691Z,-3276.60
2022-12-18T16:23:19.889Z,-3276.60
2022-12-18T16:25:48.652Z,-3276.50
2022-12-18T16:28:18.159Z,-3276.50
2022-12-18T16:30:46.452Z,-3276.50
2022-12-18T16:33:14.666Z,-3276.50
2022-12-18T16:35:43.056Z,-3276.50
2022-12-18T16:38:11.243Z,-3276.50
2022-12-18T16:41:01.957Z,-3276.60
2022-12-18T16:43:31.658Z,-3276.50
2022-12-18T16:46:01.716Z,-3276.50
2022-12-18T16:48:29.941Z,-3276.40
2022-12-18T16:51:03.283Z,-3276.40
2022-12-18T16:53:31.562Z,-3276.40
2022-12-18T16:56:01.237Z,-3276.40
2022-12-18T16:58:29.424Z,-3276.40
2022-12-18T17:00:58.928Z,-3276.50
2022-12-18T17:03:27.121Z,-3276.50
2022-12-18T17:05:55.299Z,-3276.50
2022-12-18T17:08:23.467Z,-3276.60
2022-12-18T17:10:51.620Z,-3276.60
2022-12-18T17:13:25.615Z,-3276.60
2022-12-18T17:15:54.216Z,-3276.70
2022-12-18T17:18:23.808Z,-3276.70
2022-12-18T17:20:51.907Z,-3276.70
2022-12-18T17:23:20.127Z,-3276.70
2022-12-18T17:25:48.212Z,-3276.70
2022-12-18T17:28:16.376Z,0.00
2022-12-18T17:30:44.497Z,0.00
2022-12-18T17:33:12.644Z,0.00
2022-12-18T17:35:42.242Z,0.00
2022-12-18T17:38:10.420Z,0.00
2022-12-18T17:40:44.543Z,0.00
2022-12-18T17:43:14.363Z,0.00
2022-12-18T17:45:42.608Z,0.00
2022-12-18T17:48:11.021Z,0.00
2022-12-18T17:50:40.980Z,0.00
2022-12-18T17:53:09.146Z,0.00
2022-12-18T17:55:37.303Z,0.00
2022-12-18T17:58:05.758Z,0.00
2022-12-18T18:00:34.390Z,0.00
2022-12-18T18:03:02.691Z,0.00
2022-12-18T18:05:31.022Z,0.00
2022-12-18T18:08:00.490Z,0.10
2022-12-18T18:10:28.640Z,0.10
2022-12-18T18:13:16.449Z,0.10
2022-12-18T18:15:44.727Z,0.00
2022-12-18T18:18:12.900Z,0.10
2022-12-18T18:20:49.442Z,0.10
2022-12-18T18:23:19.112Z,0.10
2022-12-18T18:25:47.785Z,0.10
2022-12-18T18:28:16.390Z,0.10
2022-12-18T18:30:44.605Z,0.00
2022-12-18T18:33:12.969Z,0.10
2022-12-18T18:35:53.677Z,0.00
2022-12-18T18:38:23.741Z,0.00
2022-12-18T18:40:59.751Z,0.10
2022-12-18T18:43:28.001Z,0.00
2022-12-18T18:45:57.383Z,0.00
2022-12-18T18:48:25.971Z,-3276.70
2022-12-18T18:51:00.625Z,-3276.50
2022-12-18T18:53:30.796Z,-3276.50
2022-12-18T18:56:37.425Z,-3276.60
2022-12-18T18:58:50.260Z,-3276.60
2022-12-18T19:01:21.146Z,-3276.70
2022-12-18T19:03:50.254Z,-3276.70
2022-12-18T19:06:20.692Z,0.00
2022-12-18T19:08:51.407Z,0.00
2022-12-18T19:11:37.213Z,0.00
2022-12-18T19:14:06.379Z,0.00
2022-12-18T19:16:35.457Z,0.00
2022-12-18T19:19:05.174Z,0.00
2022-12-18T19:21:34.772Z,0.00
2022-12-18T19:24:04.967Z,0.00
2022-12-18T19:26:33.356Z,0.00
2022-12-18T19:29:06.546Z,0.00
2022-12-18T19:31:36.633Z,0.00
2022-12-18T19:34:06.786Z,0.00
2022-12-18T19:36:36.390Z,0.00
2022-12-18T19:39:11.755Z,0.00
2022-12-18T19:41:39.966Z,0.00
2022-12-18T19:44:08.842Z,0.10
2022-12-18T19:46:39.465Z,0.10
2022-12-18T19:49:10.286Z,0.10
2022-12-18T19:51:38.414Z,0.10
2022-12-18T19:54:11.034Z,0.00
2022-12-18T19:56:42.922Z,0.00
2022-12-18T19:59:11.275Z,0.10
2022-12-18T20:01:39.484Z,0.10
2022-12-18T20:04:07.866Z,0.10
2022-12-18T20:06:37.719Z,0.10
2022-12-18T20:09:08.682Z,0.10
2022-12-18T20:11:40.248Z,0.10
2022-12-18T20:14:10.674Z,0.10
2022-12-18T20:16:38.957Z,0.10
2022-12-18T20:19:07.882Z,0.10
2022-12-18T20:21:36.288Z,0.00
2022-12-18T20:24:04.662Z,0.00
2022-12-18T20:26:34.227Z,0.00
2022-12-18T20:29:02.393Z,0.10
2022-12-18T20:31:30.608Z,0.10
2022-12-18T20:34:01.771Z,0.10
2022-12-18T20:36:32.864Z,0.10
2022-12-18T20:39:02.769Z,0.30
2022-12-18T20:41:39.084Z,0.30
2022-12-18T20:44:13.766Z,0.30
2022-12-18T20:46:52.970Z,0.30
2022-12-18T20:49:21.199Z,0.30
2022-12-18T20:51:52.558Z,0.30
2022-12-18T20:54:21.014Z,0.40
2022-12-18T20:56:50.541Z,0.40
2022-12-18T20:59:19.789Z,0.10
2022-12-18T21:01:49.426Z,0.00
2022-12-18T21:04:18.915Z,0.00
2022-12-18T21:06:52.366Z,0.00
2022-12-18T21:09:22.801Z,0.00
2022-12-18T21:12:12.403Z,0.10
2022-12-18T21:14:43.078Z,0.10
2022-12-18T21:17:11.281Z,0.10
2022-12-18T21:19:40.042Z,0.10
2022-12-18T21:22:09.096Z,0.10
2022-12-18T21:24:37.270Z,0.20
2022-12-18T21:27:06.814Z,0.20
2022-12-18T21:29:35.048Z,0.30
2022-12-18T21:32:04.219Z,0.30
2022-12-18T21:34:34.268Z,0.30
2022-12-18T21:37:02.884Z,0.30
2022-12-18T21:39:31.906Z,0.30
2022-12-18T21:42:17.798Z,0.30
2022-12-18T21:44:49.561Z,0.30
2022-12-18T21:47:23.050Z,0.40
2022-12-18T21:49:53.206Z,0.40
2022-12-18T21:52:28.339Z,0.40
2022-12-18T21:55:08.027Z,0.50
2022-12-18T21:57:38.098Z,0.60
2022-12-18T22:00:17.384Z,0.70
2022-12-18T22:02:48.365Z,0.60
2022-12-18T22:05:36.096Z,0.70
2022-12-18T22:08:04.209Z,0.80
2022-12-18T22:10:32.614Z,0.80
2022-12-18T22:13:00.964Z,0.80
2022-12-18T22:15:30.521Z,0.70
2022-12-18T22:18:00.110Z,0.80
2022-12-18T22:20:29.796Z,0.70
2022-12-18T22:22:58.595Z,0.50
2022-12-18T22:25:27.922Z,0.50
2022-12-18T22:28:13.573Z,0.50
2022-12-18T22:30:43.118Z,0.60
2022-12-18T22:33:11.403Z,0.60
2022-12-18T22:35:39.535Z,0.60
2022-12-18T22:38:08.059Z,0.80
2022-12-18T22:40:36.266Z,0.80
2022-12-18T22:43:04.437Z,0.80
2022-12-18T22:45:33.833Z,0.90
2022-12-18T22:48:06.225Z,0.90
2022-12-18T22:50:34.544Z,1.00
2022-12-18T22:53:02.703Z,1.10
2022-12-18T22:55:31.321Z,1.10
2022-12-18T22:57:59.458Z,1.10
2022-12-18T23:00:27.784Z,1.10
2022-12-18T23:03:00.247Z,1.20
2022-12-18T23:05:31.813Z,1.20
2022-12-18T23:08:00.144Z,1.20
2022-12-18T23:10:29.168Z,1.10
2022-12-18T23:12:57.446Z,1.10
2022-12-18T23:15:28.290Z,1.20
2022-12-18T23:17:58.805Z,1.20
2022-12-18T23:20:28.403Z,1.30
2022-12-18T23:22:57.905Z,1.40
2022-12-18T23:25:26.180Z,1.40
2022-12-18T23:27:54.419Z,1.40
2022-12-18T23:30:22.591Z,1.40
2022-12-18T23:32:50.880Z,1.50
2022-12-18T23:35:19.344Z,1.60
2022-12-18T23:37:58.938Z,1.50
2022-12-18T23:40:29.890Z,1.60
2022-12-18T23:42:58.174Z,1.40
2022-12-18T23:45:26.464Z,1.50
2022-12-18T23:47:54.649Z,1.60
2022-12-18T23:50:28.654Z,1.60
2022-12-18T23:53:04.865Z,1.60
2022-12-18T23:55:39.800Z,1.60
2022-12-18T23:58:08.870Z,1.70
